Time;durP1;ratioP1;P1;durP2;ratioP2;P2;SDS_P1;SDS_P2;PMS_P1;PMS_P2;Temp;Humidity;BMP_temperature;BMP_pressure;BME280_temperature;BME280_humidity;BME280_pressure;Samples;Min_cycle;Max_cycle;Signal;HPM_P1;HPM_P2
2021/03/12 00:01:28;;;;;;;17.75;8.85;;;;;;;-2.83;63.91;99658.09;3522887;28;20062;-47
2021/03/12 00:03:12;;;;;;;18.25;8.27;;;;;;;-2.83;63.98;99644.50;3512677;28;20048;-47
2021/03/12 00:04:53;;;;;;;;;;;;;;;-2.85;64.68;99641.88;3518012;28;20519;-46
2021/03/12 00:06:35;;;;;;;22.63;10.23;;;;;;;-2.86;64.68;99646.84;3526151;28;19931;-47
2021/03/12 00:08:18;;;;;;;18.42;9.32;;;;;;;-2.88;64.47;99658.53;3522437;28;20051;-46
2021/03/12 00:09:59;;;;;;;16.25;9.02;;;;;;;-2.89;64.28;99662.75;3523838;28;20051;-46
2021/03/12 00:11:40;;;;;;;22.33;8.75;;;;;;;-2.89;64.33;99646.66;3514239;28;20492;-46
2021/03/12 00:13:23;;;;;;;17.52;9.68;;;;;;;-2.90;64.57;99658.47;3512817;28;20428;-46
2021/03/12 00:15:08;;;;;;;19.00;9.23;;;;;;;-2.90;64.34;99639.78;3525940;28;20075;-46
2021/03/12 00:16:49;;;;;;;20.85;9.27;;;;;;;-2.90;64.50;99640.69;3522809;28;20086;-46
2021/03/12 00:18:34;;;;;;;17.85;9.13;;;;;;;-2.90;64.28;99634.72;3525392;28;20047;-47
2021/03/12 00:20:19;;;;;;;23.15;9.82;;;;;;;-2.92;64.46;99629.53;3522172;28;20058;-46
2021/03/12 00:22:00;;;;;;;18.88;9.63;;;;;;;-2.92;64.28;99634.63;3524162;28;20074;-46
2021/03/12 00:23:42;;;;;;;19.60;9.18;;;;;;;-2.92;64.52;99619.38;3513091;28;20052;-47
2021/03/12 00:25:26;;;;;;;20.10;8.93;;;;;;;-2.92;64.24;99624.47;3516272;28;20047;-46
2021/03/12 00:27:07;;;;;;;;;;;;;;;-2.91;64.36;99633.84;3526376;28;20078;-47
2021/03/12 00:28:49;;;;;;;18.70;8.15;;;;;;;-2.91;64.14;99610.13;3516327;28;19982;-47
2021/03/12 00:30:30;;;;;;;17.40;9.02;;;;;;;-2.92;64.45;99621.94;3512272;28;20083;-47
2021/03/12 00:32:12;;;;;;;21.75;9.38;;;;;;;-2.92;64.29;99603.28;3522614;28;20097;-47
2021/03/12 00:33:54;;;;;;;18.33;8.48;;;;;;;-2.91;64.59;99610.13;3524016;28;20044;-46
2021/03/12 00:35:36;;;;;;;23.58;9.63;;;;;;;-2.93;64.65;99599.00;3524477;28;20523;-46
2021/03/12 00:37:17;;;;;;;21.80;8.55;;;;;;;-2.94;64.48;99603.19;3520664;28;20424;-48
2021/03/12 00:38:59;;;;;;;19.52;9.45;;;;;;;-2.93;64.78;99619.31;3525741;28;20510;-46
2021/03/12 00:40:43;;;;;;;18.23;8.93;;;;;;;-2.93;64.55;99599.00;3522291;28;20575;-46
2021/03/12 00:42:24;;;;;;;15.75;9.00;;;;;;;-2.94;64.71;99604.84;3525087;28;20118;-46
2021/03/12 00:44:06;;;;;;;16.05;9.00;;;;;;;-2.93;64.16;99602.41;3521631;28;20451;-46
2021/03/12 00:45:50;;;;;;;14.73;8.73;;;;;;;-2.93;64.75;99591.41;3522161;28;20503;-47
2021/03/12 00:47:32;;;;;;;19.95;8.98;;;;;;;-2.93;64.49;99599.00;3523890;28;20047;-46
2021/03/12 00:49:14;;;;;;;18.35;9.10;;;;;;;-2.95;64.59;99583.69;3520900;28;20059;-47
2021/03/12 00:50:56;;;;;;;20.50;9.90;;;;;;;-2.94;64.49;99589.63;3525617;28;20496;-47
2021/03/12 00:52:38;;;;;;;19.75;9.80;;;;;;;-2.95;64.29;99581.13;3521037;28;20059;-47
2021/03/12 00:54:19;;;;;;;20.92;9.07;;;;;;;-2.95;64.51;99583.69;3525121;28;20043;-47
2021/03/12 00:56:01;;;;;;;16.27;8.65;;;;;;;-2.96;64.18;99568.34;3522705;28;20513;-46
2021/03/12 00:57:42;;;;;;;16.50;9.20;;;;;;;-2.95;64.16;99576.06;3523824;28;20071;-47
2021/03/12 00:59:23;;;;;;;17.17;8.57;;;;;;;-2.94;64.08;99571.84;3524366;28;20056;-47
2021/03/12 01:01:05;;;;;;;19.15;8.70;;;;;;;-2.95;64.18;99571.00;3521694;28;20517;-48
2021/03/12 01:02:46;;;;;;;16.65;8.73;;;;;;;-2.94;64.30;99554.97;3524489;28;20062;-48
2021/03/12 01:04:29;;;;;;;23.17;8.23;;;;;;;-2.95;64.31;99557.41;3521977;28;20051;-47
2021/03/12 01:06:10;;;;;;;18.52;8.60;;;;;;;-2.95;64.09;99542.16;3523588;28;20059;-47
2021/03/12 01:07:52;;;;;;;14.45;7.78;;;;;;;-2.95;64.25;99534.56;3522658;28;20047;-47
2021/03/12 01:09:33;;;;;;;20.23;7.85;;;;;;;-2.96;64.25;99542.97;3523225;28;20050;-48
2021/03/12 01:11:14;;;;;;;18.73;8.88;;;;;;;-2.95;64.23;99552.31;3523997;28;20527;-50
2021/03/12 01:12:56;;;;;;;18.25;8.02;;;;;;;-2.95;63.97;99527.84;3521995;28;20508;-47
2021/03/12 01:14:37;;;;;;;18.10;8.60;;;;;;;-2.95;63.76;99532.91;3523890;28;20113;-47
2021/03/12 01:16:19;;;;;;;22.60;9.98;;;;;;;-2.94;63.58;99531.25;3521710;28;20051;-46
2021/03/12 01:18:00;;;;;;;17.75;8.65;;;;;;;-2.94;63.89;99533.78;3524794;28;20523;-46
2021/03/12 01:19:42;;;;;;;15.50;7.60;;;;;;;-2.95;64.10;99519.34;3521435;28;20104;-47
2021/03/12 01:21:24;;;;;;;15.70;8.40;;;;;;;-2.95;63.59;99535.47;3521520;28;20515;-47
2021/03/12 01:23:06;;;;;;;17.50;7.88;;;;;;;-2.95;64.01;99519.34;3512142;28;20094;-47
2021/03/12 01:24:47;;;;;;;18.67;9.10;;;;;;;-2.95;63.77;99520.22;3514755;28;20074;-46
2021/03/12 01:26:29;;;;;;;20.35;8.88;;;;;;;-2.96;63.58;99520.13;3511212;28;20055;-49
2021/03/12 01:28:11;;;;;;;17.83;7.97;;;;;;;-2.96;63.76;99532.81;3519575;28;20048;-46
2021/03/12 01:29:53;;;;;;;19.83;10.18;;;;;;;-2.95;63.52;99543.06;3523740;28;20047;-47
2021/03/12 01:31:34;;;;;;;22.63;9.07;;;;;;;-2.95;63.60;99532.03;3521371;28;20043;-47
2021/03/12 01:33:16;;;;;;;28.52;12.10;;;;;;;-2.96;63.76;99542.97;3522998;28;20424;-46
2021/03/12 01:34:58;;;;;;;25.42;11.65;;;;;;;-2.99;63.96;99548.72;3523996;28;20053;-47
2021/03/12 01:36:39;;;;;;;29.30;12.82;;;;;;;-3.00;64.10;99541.91;3521700;28;20044;-46
2021/03/12 01:38:20;;;;;;;23.63;10.10;;;;;;;-3.01;63.96;99543.56;3525263;28;20048;-48
2021/03/12 01:40:04;;;;;;;15.35;8.07;;;;;;;-3.01;63.79;99557.88;3520085;28;20501;-47
2021/03/12 01:42:03;;;;;;;20.45;8.23;;;;;;;-3.02;63.94;99546.00;3523717;28;20054;-46
2021/03/12 01:43:44;;;;;;;16.67;7.97;;;;;;;-3.02;63.68;99554.47;3523216;28;20090;-47
2021/03/12 01:45:29;;;;;;;16.00;7.65;;;;;;;-3.02;63.82;99525.69;3521587;28;20047;-47
2021/03/12 01:47:11;;;;;;;15.90;8.32;;;;;;;-3.03;63.64;99537.47;3525271;28;20062;-46
2021/03/12 01:48:52;;;;;;;16.05;7.30;;;;;;;-3.04;63.89;99525.59;3520110;28;20078;-47
2021/03/12 01:50:34;;;;;;;14.55;7.68;;;;;;;-3.05;64.17;99536.50;3523867;28;20547;-47
2021/03/12 01:52:16;;;;;;;17.20;7.75;;;;;;;-3.06;64.07;99518.66;3521482;28;20048;-47
2021/03/12 01:53:57;;;;;;;47.30;9.27;;;;;;;-3.07;64.13;99512.69;3521724;28;20086;-47
2021/03/12 01:55:40;;;;;;;18.35;7.53;;;;;;;-3.08;64.14;99516.00;3512408;28;20086;-46
2021/03/12 01:57:21;;;;;;;17.08;7.55;;;;;;;-3.09;64.17;99488.91;3515080;28;20043;-46
2021/03/12 01:59:03;;;;;;;18.33;7.78;;;;;;;-3.09;64.17;99478.75;3524921;28;20393;-46
2021/03/12 02:00:45;;;;;;;28.25;8.00;;;;;;;-3.11;64.15;99471.78;3521551;28;20272;-47
2021/03/12 02:02:26;;;;;;;16.42;7.32;;;;;;;-3.11;64.51;99469.25;3524475;28;20051;-46
2021/03/12 02:04:08;;;;;;;15.48;7.80;;;;;;;-3.14;64.40;99490.25;3521816;28;20051;-46
2021/03/12 02:05:51;;;;;;;16.35;7.90;;;;;;;-3.15;64.36;99529.06;3521884;28;20413;-47
2021/03/12 02:07:32;;;;;;;14.98;6.85;;;;;;;-3.15;64.80;99480.00;3523200;28;20055;-47
2021/03/12 02:09:15;;;;;;;14.38;7.00;;;;;;;-3.15;64.26;99487.63;3520105;28;20043;-47
2021/03/12 02:10:57;;;;;;;14.65;7.35;;;;;;;-3.17;64.67;99492.59;3524818;28;20051;-48
2021/03/12 02:12:47;;;;;;;15.18;7.22;;;;;;;-3.19;64.71;99478.94;3521198;28;20425;-46
2021/03/12 02:14:34;;;;;;;17.73;7.78;;;;;;;-3.21;65.07;99478.81;3520795;27;20055;-48
2021/03/12 02:16:22;;;;;;;16.48;7.70;;;;;;;-3.22;64.81;99468.56;3521491;28;20428;-47
2021/03/12 02:18:09;;;;;;;16.73;7.28;;;;;;;-3.22;64.92;99479.63;3521259;28;20048;-46
2021/03/12 02:20:15;;;;;;;13.68;7.75;;;;;;;-3.23;64.85;99482.06;3524812;28;20055;-46
2021/03/12 02:21:58;;;;;;;16.13;8.15;;;;;;;-3.23;65.07;99497.28;3521573;28;20047;-46
2021/03/12 02:24:05;;;;;;;20.70;8.45;;;;;;;-3.26;64.77;99469.16;3523126;28;20048;-57
2021/03/12 02:25:55;;;;;;;14.23;7.43;;;;;;;-3.26;65.04;99464.97;3510596;28;20437;-57
2021/03/12 02:27:38;;;;;;;18.13;8.25;;;;;;;-3.27;64.88;99449.63;3518779;28;20043;-57
2021/03/12 02:29:21;;;;;;;16.23;7.18;;;;;;;-3.27;65.07;99448.00;3523899;28;20580;-57
2021/03/12 02:31:04;;;;;;;15.00;7.95;;;;;;;-3.27;64.44;99440.41;3520929;28;20047;-57
2021/03/12 02:32:49;;;;;;;16.55;7.93;;;;;;;-3.27;64.60;99470.84;3521956;28;20071;-57
2021/03/12 02:34:36;;;;;;;15.68;7.53;;;;;;;-3.27;64.63;99448.00;3524517;28;20142;-57
2021/03/12 02:36:19;;;;;;;20.58;8.25;;;;;;;-3.28;64.94;99438.63;3520920;28;20052;-57
2021/03/12 02:38:02;;;;;;;19.55;7.35;;;;;;;-3.29;65.05;99447.03;3523648;28;20052;-57
2021/03/12 02:39:48;;;;;;;17.15;8.48;;;;;;;-3.32;65.44;99431.59;3520857;28;20051;-56
2021/03/12 02:41:30;;;;;;;18.13;8.18;;;;;;;-3.33;64.79;99434.91;3520701;28;20545;-56
2021/03/12 02:43:12;;;;;;;20.75;7.55;;;;;;;-3.34;64.79;99444.94;3522242;28;20497;-56
2021/03/12 02:44:58;;;;;;;15.10;7.10;;;;;;;-3.34;65.13;99452.56;3519545;28;20043;-56
2021/03/12 02:46:41;;;;;;;18.13;8.68;;;;;;;-3.35;65.07;99484.66;3524396;28;20471;-56
2021/03/12 02:48:23;;;;;;;20.67;8.23;;;;;;;-3.35;64.97;99431.41;3520837;28;20039;-56
2021/03/12 02:50:06;;;;;;;14.20;7.63;;;;;;;-3.35;65.17;99461.84;3523613;28;20112;-56
2021/03/12 02:51:48;;;;;;;20.15;8.55;;;;;;;-3.36;64.81;99443.97;3521804;28;20059;-55
2021/03/12 02:53:30;;;;;;;17.23;8.48;;;;;;;-3.36;64.83;99434.72;3519615;28;20048;-57
2021/03/12 02:55:13;;;;;;;18.45;8.55;;;;;;;-3.35;64.71;99441.53;3510252;28;20201;-57
2021/03/12 02:56:55;;;;;;;18.10;8.48;;;;;;;-3.38;64.72;99421.94;3516484;28;20116;-56
2021/03/12 02:58:38;;;;;;;23.85;8.13;;;;;;;-3.38;64.90;99424.50;3524352;28;20051;-57
2021/03/12 03:00:20;;;;;;;27.13;9.10;;;;;;;-3.39;64.99;99414.25;3512808;28;20471;-57
2021/03/12 03:02:02;;;;;;;15.45;8.20;;;;;;;-3.40;64.93;99441.25;3510593;28;20308;-57
2021/03/12 03:03:44;;;;;;;19.73;8.50;;;;;;;-3.41;65.21;99416.69;3521911;28;20047;-57
2021/03/12 03:05:27;;;;;;;15.18;7.57;;;;;;;-3.41;65.07;99426.81;3520210;28;20047;-57
2021/03/12 03:07:10;;;;;;;19.70;8.85;;;;;;;-3.43;65.72;99419.88;3523527;28;20508;-57
2021/03/12 03:08:52;;;;;;;20.02;7.22;;;;;;;-3.44;65.76;99429.16;3519457;28;20078;-57
2021/03/12 03:10:34;;;;;;;20.48;7.75;;;;;;;-3.46;65.66;99420.56;3524344;28;20047;-57
2021/03/12 03:12:20;;;;;;;16.90;8.43;;;;;;;-3.48;65.53;99422.13;3521027;28;20412;-57
2021/03/12 03:14:03;;;;;;;16.92;8.35;;;;;;;-3.50;65.76;99415.19;3521499;28;20153;-57
2021/03/12 03:15:45;;;;;;;14.85;7.07;;;;;;;-3.51;65.51;99411.78;3511058;28;20048;-57
2021/03/12 03:17:28;;;;;;;20.27;8.63;;;;;;;-3.53;65.71;99409.94;3512280;28;20086;-57
2021/03/12 03:19:11;;;;;;;19.10;8.68;;;;;;;-3.55;65.73;99399.69;3510045;28;20059;-58
2021/03/12 03:20:55;;;;;;;18.35;9.00;;;;;;;-3.56;66.20;99408.06;3516588;28;20568;-57
2021/03/12 03:22:37;;;;;;;15.40;7.68;;;;;;;-3.59;66.09;99403.69;3522280;28;20596;-57
2021/03/12 03:24:18;;;;;;;16.40;7.60;;;;;;;-3.60;66.10;99403.59;3520287;28;20054;-57
2021/03/12 03:26:00;;;;;;;19.63;8.45;;;;;;;-3.62;66.48;99388.28;3520714;28;20527;-57
2021/03/12 03:27:42;;;;;;;20.17;9.07;;;;;;;-3.63;66.33;99404.25;3509855;28;20105;-57
2021/03/12 03:29:24;;;;;;;17.23;7.40;;;;;;;-3.63;66.19;99394.13;3513366;28;20504;-57
2021/03/12 03:31:06;;;;;;;22.70;8.50;;;;;;;-3.65;65.96;99410.00;3523840;28;20424;-57
2021/03/12 03:32:47;;;;;;;16.58;7.18;;;;;;;-3.65;66.01;99398.22;3519280;28;20055;-57
2021/03/12 03:34:29;;;;;;;23.08;7.72;;;;;;;-3.66;65.93;99395.56;3523487;28;20188;-57
2021/03/12 03:36:11;;;;;;;18.90;8.15;;;;;;;-3.68;66.24;99397.13;3511516;28;20048;-57
2021/03/12 03:37:52;;;;;;;18.70;8.48;;;;;;;-3.68;65.78;99402.19;3512615;28;20047;-57
2021/03/12 03:39:38;;;;;;;21.40;9.38;;;;;;;-3.70;66.13;99391.09;3523030;28;20104;-58
2021/03/12 03:41:21;;;;;;;17.40;7.93;;;;;;;-3.71;66.26;99402.00;3520028;28;20509;-57
2021/03/12 03:43:05;;;;;;;22.00;8.52;;;;;;;-3.73;65.89;99378.22;3523898;28;20044;-57
2021/03/12 03:44:49;;;;;;;19.20;8.13;;;;;;;-3.74;66.22;99372.28;3520920;28;20051;-58
2021/03/12 03:46:31;;;;;;;17.90;8.52;;;;;;;-3.77;66.09;99380.53;3521503;28;20048;-57
2021/03/12 03:48:14;;;;;;;20.40;10.07;;;;;;;-3.79;66.42;99369.44;3511177;28;20055;-57
2021/03/12 03:49:56;;;;;;;18.95;9.02;;;;;;;-3.79;66.11;99383.75;3512075;28;20047;-58
2021/03/12 03:51:39;;;;;;;19.13;8.68;;;;;;;-3.79;65.92;99355.88;3523314;28;20087;-57
2021/03/12 03:53:22;;;;;;;26.30;10.07;;;;;;;-3.79;66.09;99361.81;3518880;28;20463;-57
2021/03/12 03:55:06;;;;;;;22.05;8.50;;;;;;;-3.79;66.17;99343.22;3523842;28;20508;-57
2021/03/12 03:56:49;;;;;;;18.08;7.97;;;;;;;-3.81;66.36;99359.97;3520699;28;20104;-57
2021/03/12 03:58:32;;;;;;;17.42;8.50;;;;;;;-3.81;66.00;99365.91;3522713;28;20047;-57
2021/03/12 04:00:15;;;;;;;18.83;8.57;;;;;;;-3.82;66.09;99348.97;3521536;28;20481;-57
2021/03/12 04:01:57;;;;;;;21.38;8.43;;;;;;;-3.83;65.85;99351.41;3518895;28;20062;-57
2021/03/12 04:03:41;;;;;;;16.65;8.15;;;;;;;-3.83;66.05;99353.94;3509833;28;20421;-46
2021/03/12 04:05:23;;;;;;;13.63;8.32;;;;;;;-3.85;65.92;99378.28;3511711;28;20093;-47
2021/03/12 04:07:06;;;;;;;16.38;7.72;;;;;;;-3.86;66.33;99379.94;3509211;28;20056;-46
2021/03/12 04:08:48;;;;;;;19.80;9.05;;;;;;;-3.85;66.46;99368.13;3520685;28;20527;-46
2021/03/12 04:10:29;;;;;;;16.60;8.50;;;;;;;-3.86;66.17;99371.47;3521559;28;20052;-46
2021/03/12 04:12:13;;;;;;;17.65;8.55;;;;;;;-3.85;65.95;99370.69;3521300;28;20058;-47
2021/03/12 04:13:57;;;;;;;16.02;7.95;;;;;;;-3.86;66.32;99366.41;3518890;28;20079;-47
2021/03/12 04:15:39;;;;;;;18.45;8.25;;;;;;;-3.87;66.04;99392.50;3523746;28;20513;-46
2021/03/12 04:17:21;;;;;;;21.27;7.95;;;;;;;-3.88;66.08;99384.03;3518314;28;20063;-46
2021/03/12 04:19:04;;;;;;;21.50;8.73;;;;;;;-3.89;66.29;99407.59;3521494;28;20056;-46
2021/03/12 04:20:48;;;;;;;17.15;9.20;;;;;;;-3.89;66.46;99382.25;3520846;28;20059;-46
2021/03/12 04:22:31;;;;;;;24.48;9.48;;;;;;;-3.88;66.19;99365.44;3519755;28;20058;-46
2021/03/12 04:24:13;;;;;;;19.35;8.15;;;;;;;-3.90;65.89;99359.38;3509559;28;20131;-47
2021/03/12 04:25:55;;;;;;;19.67;8.15;;;;;;;-3.89;65.95;99373.78;3512960;28;20085;-47
2021/03/12 04:27:37;;;;;;;17.35;8.30;;;;;;;-3.90;66.18;99372.06;3509447;28;20059;-46
2021/03/12 04:29:18;;;;;;;18.17;8.85;;;;;;;-3.92;66.32;99371.94;3519018;28;20079;-46
2021/03/12 04:31:01;;;;;;;19.35;8.57;;;;;;;-3.93;65.74;99387.91;3521452;28;20079;-47
2021/03/12 04:32:43;;;;;;;21.90;8.63;;;;;;;-3.95;65.94;99382.75;3510282;28;20113;-47
2021/03/12 04:34:24;;;;;;;20.08;8.82;;;;;;;-3.94;66.15;99376.03;3511540;28;20061;-47
2021/03/12 04:36:06;;;;;;;18.33;9.30;;;;;;;-3.95;66.22;99400.47;3522694;28;20047;-48
2021/03/12 04:37:48;;;;;;;17.65;7.85;;;;;;;-3.95;66.14;99380.22;3522370;28;20105;-47
2021/03/12 04:39:31;;;;;;;19.35;8.93;;;;;;;-3.96;65.99;99382.63;3525769;28;20055;-46
2021/03/12 04:41:13;;;;;;;19.63;8.35;;;;;;;-3.96;66.58;99385.19;3514411;28;20047;-47
2021/03/12 04:42:55;;;;;;;27.52;9.82;;;;;;;-3.97;66.12;99380.91;3512304;28;20066;-46
2021/03/12 04:44:36;;;;;;;19.48;10.23;;;;;;;-3.98;65.96;99405.38;3523427;28;20048;-46
2021/03/12 04:46:19;;;;;;;16.33;8.15;;;;;;;-3.99;66.12;99383.34;3522785;28;20043;-48
2021/03/12 04:48:01;;;;;;;17.55;8.18;;;;;;;-3.97;66.04;99391.03;3525345;28;20086;-46
2021/03/12 04:49:44;;;;;;;24.13;9.38;;;;;;;-3.99;66.37;99396.00;3522396;28;20086;-46
2021/03/12 04:51:25;;;;;;;19.25;8.75;;;;;;;-3.99;66.29;99406.13;3525845;28;20047;-46
2021/03/12 04:53:07;;;;;;;19.10;8.63;;;;;;;-4.01;66.06;99414.38;3513894;28;20489;-46
2021/03/12 04:54:48;;;;;;;15.85;7.93;;;;;;;-4.00;65.82;99400.97;3512558;28;20468;-57
2021/03/12 04:56:31;;;;;;;22.52;9.43;;;;;;;-4.01;66.21;99384.00;3522918;28;20539;-57
2021/03/12 04:58:12;;;;;;;21.05;9.13;;;;;;;-4.01;66.63;99386.53;3521208;28;20047;-57
2021/03/12 04:59:55;;;;;;;25.85;10.07;;;;;;;-4.02;66.35;99383.13;3525190;28;20512;-57
2021/03/12 05:01:38;;;;;;;20.88;9.05;;;;;;;-4.01;66.04;99366.25;3521892;28;20071;-57
2021/03/12 05:03:20;;;;;;;19.35;8.98;;;;;;;-4.01;66.30;99379.81;3525671;28;20054;-58
2021/03/12 05:05:05;;;;;;;23.35;9.15;;;;;;;-4.03;66.31;99383.00;3521583;28;20047;-57
2021/03/12 05:06:48;;;;;;;14.20;7.53;;;;;;;-4.03;66.39;99370.34;3524123;28;20104;-57
2021/03/12 05:08:31;;;;;;;19.40;8.70;;;;;;;-4.04;66.27;99371.16;3523855;28;20058;-58
2021/03/12 05:10:13;;;;;;;22.65;8.82;;;;;;;-4.03;66.56;99377.94;3520622;28;20043;-57
2021/03/12 05:11:54;;;;;;;17.65;9.48;;;;;;;-4.03;66.74;99371.25;3525476;28;20504;-57
2021/03/12 05:13:36;;;;;;;20.60;9.25;;;;;;;-4.01;66.32;99379.81;3521322;28;20054;-57
2021/03/12 05:15:17;;;;;;;20.40;9.25;;;;;;;-4.00;66.44;99388.28;3524818;28;20555;-58
2021/03/12 05:16:59;;;;;;;22.15;9.07;;;;;;;-4.01;66.29;99397.56;3513520;28;20048;-57
2021/03/12 05:18:41;;;;;;;19.80;8.27;;;;;;;-3.99;66.15;99385.88;3515106;28;20506;-57
2021/03/12 05:20:24;;;;;;;22.63;9.20;;;;;;;-3.99;66.41;99396.00;3525322;28;20063;-57
2021/03/12 05:22:06;;;;;;;20.38;9.45;;;;;;;-3.98;66.08;99382.56;3520121;28;21048;-57
2021/03/12 05:23:47;;;;;;;19.23;8.85;;;;;;;-3.97;66.30;99391.91;3525577;28;20043;-58
2021/03/12 05:25:29;;;;;;;22.20;9.38;;;;;;;-3.97;66.31;99366.56;3521631;28;20531;-58
2021/03/12 05:27:10;;;;;;;20.63;9.50;;;;;;;-3.97;66.24;99370.78;3524482;28;20048;-58
2021/03/12 05:28:53;;;;;;;18.77;9.07;;;;;;;-3.97;66.18;99371.63;3512548;28;20056;-58
2021/03/12 05:30:34;;;;;;;18.88;9.05;;;;;;;-3.96;66.22;99355.69;3514387;28;20055;-58
2021/03/12 05:32:17;;;;;;;22.80;10.23;;;;;;;-3.95;66.20;99346.41;3524859;28;20432;-57
2021/03/12 05:34:03;;;;;;;20.20;8.95;;;;;;;-3.95;66.12;99392.00;3516298;28;20051;-58
2021/03/12 05:35:44;;;;;;;20.35;9.40;;;;;;;-3.95;66.01;99357.41;3511468;28;20051;-58
2021/03/12 05:37:26;;;;;;;17.58;8.02;;;;;;;-3.96;66.17;99375.03;3522188;28;20104;-58
2021/03/12 05:39:08;;;;;;;20.63;9.85;;;;;;;-3.97;66.26;99385.97;3523963;28;20040;-58
2021/03/12 05:40:49;;;;;;;22.88;9.25;;;;;;;-3.97;66.34;99355.56;3523043;28;20059;-58
2021/03/12 05:42:31;;;;;;;22.35;10.57;;;;;;;-3.95;66.62;99346.41;3521387;28;20058;-58
2021/03/12 05:44:13;;;;;;;20.75;8.80;;;;;;;-3.91;66.05;99372.81;3525095;28;20051;-58
2021/03/12 05:45:58;;;;;;;25.65;9.90;;;;;;;-3.90;66.04;99359.38;3520257;28;20100;-58
2021/03/12 05:47:41;;;;;;;19.75;9.80;;;;;;;-3.89;66.25;99356.94;3524183;28;20083;-58
2021/03/12 05:49:22;;;;;;;23.08;9.80;;;;;;;-3.86;65.76;99341.06;3520820;28;20043;-58
2021/03/12 05:51:04;;;;;;;20.00;9.13;;;;;;;-3.84;65.93;99349.63;3521874;28;20051;-57
2021/03/12 05:52:46;;;;;;;26.48;10.45;;;;;;;-3.80;65.81;99361.72;3512325;28;20052;-57
2021/03/12 05:54:28;;;;;;;17.50;8.90;;;;;;;-3.78;65.67;99370.31;3514286;28;20047;-58
2021/03/12 05:56:10;;;;;;;25.70;9.40;;;;;;;-3.76;65.73;99377.22;3510834;28;20059;-58
2021/03/12 05:57:53;;;;;;;22.35;9.57;;;;;;;-3.72;65.73;99344.50;3519174;28;20100;-58
2021/03/12 05:59:35;;;;;;;28.70;10.25;;;;;;;-3.70;65.52;99368.28;3523294;28;20516;-58
2021/03/12 06:01:16;;;;;;;22.52;9.43;;;;;;;-3.69;65.04;99359.91;3521994;28;20047;-57
2021/03/12 06:02:58;;;;;;;23.90;9.45;;;;;;;-3.67;65.40;99354.16;3522824;28;20051;-58
2021/03/12 06:04:39;;;;;;;25.77;10.48;;;;;;;-3.64;65.29;99355.97;3523745;28;20051;-57
2021/03/12 06:06:21;;;;;;;19.70;8.82;;;;;;;-3.59;64.73;99354.63;3521218;28;20043;-58
2021/03/12 06:08:02;;;;;;;26.27;10.23;;;;;;;-3.59;64.89;99363.13;3525052;28;20048;-58
2021/03/12 06:09:44;;;;;;;19.58;10.73;;;;;;;-3.57;65.25;99341.28;3519858;28;20044;-58
2021/03/12 06:11:25;;;;;;;19.98;9.90;;;;;;;-3.54;64.86;99342.25;3524324;28;20047;-58
2021/03/12 06:13:06;;;;;;;23.50;9.60;;;;;;;-3.53;64.42;99341.50;3520373;28;20062;-58
2021/03/12 06:14:52;;;;;;;31.42;10.32;;;;;;;-3.51;64.49;99327.25;3523428;28;20557;-57
2021/03/12 06:16:34;;;;;;;20.15;8.85;;;;;;;-3.49;64.39;99315.53;3522794;28;20059;-58
2021/03/12 06:18:20;;;;;;;21.70;9.13;;;;;;;-3.44;64.31;99319.25;3519702;28;20423;-58
2021/03/12 06:20:05;;;;;;;24.02;9.88;;;;;;;-3.41;64.17;99286.50;3525030;28;20054;-58
2021/03/12 06:21:48;;;;;;;19.85;9.07;;;;;;;-3.41;63.90;99284.81;3519266;28;20112;-56
2021/03/12 06:23:33;;;;;;;23.77;10.20;;;;;;;-3.42;64.07;99285.59;3521613;28;20458;-57
2021/03/12 06:25:17;;;;;;;26.45;11.68;;;;;;;-3.39;64.44;99300.13;3521607;28;20394;-57
2021/03/12 06:26:59;;;;;;;21.58;9.40;;;;;;;-3.38;64.10;99296.78;3512802;28;20052;-56
2021/03/12 06:28:40;;;;;;;21.58;10.65;;;;;;;-3.38;63.97;99314.56;3510792;28;20052;-54
2021/03/12 06:30:23;;;;;;;32.88;11.80;;;;;;;-3.40;63.71;99298.38;3516228;28;20051;-55
2021/03/12 06:32:06;;;;;;;30.95;9.95;;;;;;;-3.39;63.79;99313.69;3524476;28;20051;-55
2021/03/12 06:33:48;;;;;;;23.00;9.60;;;;;;;-3.40;63.89;99284.03;3520737;28;20051;-56
2021/03/12 06:35:36;;;;;;;20.67;8.85;;;;;;;-3.43;63.34;99281.31;3522005;28;20048;-56
2021/03/12 06:37:26;;;;;;;21.13;9.52;;;;;;;-3.45;63.63;99289.59;3522155;28;20508;-56
2021/03/12 06:39:07;;;;;;;30.48;9.57;;;;;;;-3.44;63.52;99288.81;3517260;28;20428;-57
2021/03/12 06:40:49;;;;;;;22.05;9.30;;;;;;;-3.41;63.55;99294.97;3510574;28;20059;-56
2021/03/12 06:42:31;;;;;;;19.65;9.63;;;;;;;-3.40;63.81;99286.56;3518271;28;20500;-57
2021/03/12 06:44:26;;;;;;;21.08;9.68;;;;;;;-3.40;63.68;99294.16;3522734;28;20075;-57
2021/03/12 06:46:07;;;;;;;20.17;8.93;;;;;;;-3.36;63.59;99304.50;3521537;28;20101;-56
2021/03/12 06:47:48;;;;;;;20.98;9.68;;;;;;;-3.34;63.18;99281.00;3520519;28;20055;-57
2021/03/12 06:49:32;;;;;;;22.10;9.85;;;;;;;-3.33;63.47;99287.81;3510395;28;20076;-56
2021/03/12 06:51:14;;;;;;;21.25;10.63;;;;;;;-3.30;63.28;99292.22;3518106;28;20054;-55
2021/03/12 06:52:56;;;;;;;23.00;10.20;;;;;;;-3.28;62.84;99288.97;3524196;28;20165;-55
2021/03/12 06:54:50;;;;;;;25.10;10.55;;;;;;;-3.26;62.84;99312.78;3513354;28;20070;-56
2021/03/12 06:56:33;;;;;;;20.77;8.88;;;;;;;-3.23;62.66;99292.69;3512622;28;20047;-56
2021/03/12 06:58:14;;;;;;;21.42;9.93;;;;;;;-3.21;62.46;99269.97;3510736;28;20532;-55
2021/03/12 07:00:00;;;;;;;22.92;10.30;;;;;;;-3.21;62.44;99290.25;3516630;28;20153;-55
2021/03/12 07:01:56;;;;;;;17.27;7.60;;;;;;;-3.24;62.13;99310.34;3524222;28;20067;-55
2021/03/12 07:03:37;;;;;;;19.67;9.00;;;;;;;-3.28;62.42;99299.13;3520669;28;20504;-56
2021/03/12 07:05:19;;;;;;;19.40;9.43;;;;;;;-3.25;62.38;99270.56;3522198;28;20048;-56
2021/03/12 07:07:01;;;;;;;19.65;8.57;;;;;;;-3.25;62.22;99286.66;3522927;28;20048;-56
2021/03/12 07:08:45;;;;;;;18.92;10.52;;;;;;;-3.26;62.13;99287.41;3518059;28;20048;-55
2021/03/12 07:10:33;;;;;;;21.25;9.07;;;;;;;-3.24;62.43;99288.38;3509777;28;20047;-56
2021/03/12 07:12:15;;;;;;;18.98;8.57;;;;;;;-3.19;62.52;99296.28;3517614;28;20134;-55
2021/03/12 07:13:58;;;;;;;19.27;10.13;;;;;;;-3.20;62.03;99274.22;3520553;28;20051;-55
2021/03/12 07:15:43;;;;;;;22.95;9.82;;;;;;;-3.20;62.14;99281.84;3521868;28;20496;-55
2021/03/12 07:17:25;;;;;;;25.70;10.98;;;;;;;-3.20;62.55;99264.97;3519238;28;20048;-55
2021/03/12 07:19:06;;;;;;;19.30;9.52;;;;;;;-3.17;62.18;99245.66;3510122;28;20071;-56
2021/03/12 07:20:48;;;;;;;18.92;8.65;;;;;;;-3.19;62.35;99273.47;3513444;28;20524;-56
2021/03/12 07:22:32;;;;;;;20.42;10.75;;;;;;;-3.17;62.59;99228.75;3510239;28;20067;-55
2021/03/12 07:24:16;;;;;;;23.15;8.98;;;;;;;-3.15;62.59;99256.75;3520252;28;20055;-55
2021/03/12 07:25:58;;;;;;;18.95;8.75;;;;;;;-3.10;62.70;99255.38;3522737;28;20081;-56
2021/03/12 07:27:41;;;;;;;17.95;9.68;;;;;;;-3.07;62.49;99241.22;3511352;28;20056;-55
2021/03/12 07:29:23;;;;;;;25.42;9.13;;;;;;;-3.07;62.21;99256.44;3514189;28;20047;-56
2021/03/12 07:31:05;;;;;;;24.95;9.48;;;;;;;-3.06;62.32;99245.53;3523901;28;20056;-55
2021/03/12 07:32:52;;;;;;;22.25;9.70;;;;;;;-3.04;62.36;99241.41;3515321;28;20058;-55
2021/03/12 07:34:37;;;;;;;16.13;8.43;;;;;;;-3.04;61.84;99256.66;3510000;28;20461;-55
2021/03/12 07:36:22;;;;;;;20.13;9.25;;;;;;;-3.04;62.05;99263.34;3522456;28;20047;-56
2021/03/12 07:38:05;;;;;;;17.23;8.25;;;;;;;-3.05;61.94;99285.31;3519067;28;20044;-55
2021/03/12 07:39:47;;;;;;;15.43;7.95;;;;;;;-3.02;62.06;99262.69;3523824;28;20067;-55
2021/03/12 07:41:28;;;;;;;17.52;7.68;;;;;;;-2.99;62.40;99251.81;3519765;28;20081;-55
2021/03/12 07:43:12;;;;;;;16.80;8.32;;;;;;;-2.98;62.07;99245.97;3521899;28;20090;-55
2021/03/12 07:44:54;;;;;;;18.83;8.77;;;;;;;-3.00;62.21;99253.50;3520142;28;20576;-56
2021/03/12 07:46:38;;;;;;;18.08;8.70;;;;;;;-3.01;62.29;99221.31;3519515;28;20468;-55
2021/03/12 07:48:27;;;;;;;16.52;8.13;;;;;;;-2.99;62.05;99213.75;3522261;28;20051;-56
2021/03/12 07:50:24;;;;;;;17.85;8.07;;;;;;;-3.00;62.50;99215.44;3520374;28;20044;-55
2021/03/12 07:52:06;;;;;;;17.52;8.57;;;;;;;-2.96;62.55;99202.94;3523132;28;20052;-56
2021/03/12 07:53:53;;;;;;;21.20;7.97;;;;;;;-2.96;62.19;99229.19;3521052;28;20501;-55
2021/03/12 07:55:55;;;;;;;17.50;8.52;;;;;;;-2.93;62.24;99213.28;3520395;28;20048;-55
2021/03/12 07:57:41;;;;;;;25.27;10.35;;;;;;;-2.90;62.51;99218.50;3509880;28;20060;-55
2021/03/12 07:59:57;;;;;;;15.27;7.70;;;;;;;-2.87;62.62;99224.66;3514417;28;20135;-54